Time;durP1;ratioP1;P1;durP2;ratioP2;P2;SDS_P1;SDS_P2;PMS_P1;PMS_P2;Temp;Humidity;BMP_temperature;BMP_pressure;BME280_temperature;BME280_humidity;BME280_pressure;Samples;Min_cycle;Max_cycle;Signal;HPM_P1;HPM_P2
2022/08/16 00:00:13;;;;;;;7.78;6.28;;;21.50;99.90;;;;;;5033860;28;20049;-69
2022/08/16 00:02:39;;;;;;;6.78;6.05;;;21.50;99.90;;;;;;5032906;28;20495;-70
2022/08/16 00:05:08;;;;;;;7.15;6.38;;;21.50;99.90;;;;;;5033162;28;20061;-69
2022/08/16 00:07:34;;;;;;;7.45;6.75;;;21.50;99.90;;;;;;5015384;28;20393;-70
2022/08/16 00:10:00;;;;;;;7.65;6.85;;;21.50;99.90;;;;;;5033071;28;20045;-70
2022/08/16 00:12:28;;;;;;;7.28;6.07;;;21.50;99.90;;;;;;5033074;28;20449;-69
2022/08/16 00:14:56;;;;;;;6.80;6.10;;;21.40;99.90;;;;;;5033102;28;20379;-70
2022/08/16 00:17:22;;;;;;;8.07;7.28;;;21.40;99.90;;;;;;5032909;28;20077;-70
2022/08/16 00:19:48;;;;;;;7.82;7.03;;;21.40;99.90;;;;;;5033022;28;20087;-69
2022/08/16 00:22:13;;;;;;;8.15;6.50;;;21.40;99.90;;;;;;5032942;28;20414;-70
2022/08/16 00:24:39;;;;;;;7.45;6.75;;;21.40;99.90;;;;;;5033314;28;20080;-69
2022/08/16 00:27:05;;;;;;;7.85;7.05;;;21.30;99.90;;;;;;5032896;28;20042;-70
2022/08/16 00:29:31;;;;;;;7.20;6.50;;;21.30;99.90;;;;;;5032907;28;20072;-70
2022/08/16 00:32:00;;;;;;;7.38;6.68;;;21.40;99.90;;;;;;5015045;28;20089;-70
2022/08/16 00:34:26;;;;;;;6.30;5.70;;;21.30;99.90;;;;;;5033299;28;20103;-70
2022/08/16 00:36:52;;;;;;;8.35;5.95;;;21.30;99.90;;;;;;5033315;28;20371;-70
2022/08/16 00:39:18;;;;;;;8.02;6.50;;;21.30;99.90;;;;;;5015640;28;20042;-69
2022/08/16 00:41:46;;;;;;;7.55;6.80;;;21.30;99.90;;;;;;5032836;28;20046;-69
2022/08/16 00:44:13;;;;;;;9.13;7.30;;;21.20;99.90;;;;;;5032819;28;20099;-70
2022/08/16 00:46:56;;;;;;;7.97;7.10;;;21.20;99.90;;;;;;5032853;28;20129;-70
2022/08/16 00:49:23;;;;;;;9.07;7.20;;;21.20;99.90;;;;;;5032814;28;20061;-70
2022/08/16 00:51:51;;;;;;;7.93;7.22;;;21.20;99.90;;;;;;5032701;28;20068;-69
2022/08/16 00:54:18;;;;;;;8.18;7.30;;;21.20;99.90;;;;;;5032763;28;20479;-69
2022/08/16 00:56:47;;;;;;;8.52;7.70;;;21.10;99.90;;;;;;5015263;28;20056;-70
2022/08/16 00:59:14;;;;;;;8.65;7.75;;;21.20;99.90;;;;;;5032517;28;20052;-70
2022/08/16 01:01:41;;;;;;;8.70;7.90;;;21.20;99.90;;;;;;5033387;28;20132;-70
2022/08/16 01:04:08;;;;;;;9.05;7.63;;;21.10;99.90;;;;;;5032292;28;20463;-70
2022/08/16 01:06:34;;;;;;;10.68;8.57;;;21.10;99.90;;;;;;5018079;28;20072;-70
2022/08/16 01:09:05;;;;;;;12.25;8.68;;;21.10;99.90;;;;;;5036281;28;20053;-70
2022/08/16 01:11:33;;;;;;;9.35;8.45;;;21.00;99.90;;;;;;5036300;28;20060;-69
2022/08/16 01:14:17;;;;;;;9.57;8.68;;;21.10;99.90;;;;;;5036143;28;20049;-69
2022/08/16 01:16:45;;;;;;;9.13;8.23;;;21.00;99.90;;;;;;5019452;28;20077;-69
2022/08/16 01:19:30;;;;;;;9.63;8.30;;;21.00;99.90;;;;;;5036674;28;20442;-69
2022/08/16 01:22:20;;;;;;;9.75;8.77;;;20.90;99.90;;;;;;5036035;28;20056;-69
2022/08/16 01:24:51;;;;;;;10.68;9.40;;;20.80;99.90;;;;;;5019119;28;20088;-69
2022/08/16 01:27:22;;;;;;;11.02;9.63;;;20.70;99.90;;;;;;5036018;28;20038;-69
2022/08/16 01:30:25;;;;;;;10.82;9.73;;;20.70;99.90;;;;;;5036431;28;20467;-69
2022/08/16 01:32:53;;;;;;;11.52;9.68;;;20.80;99.90;;;;;;5017895;28;20557;-70
2022/08/16 01:35:28;;;;;;;10.68;9.18;;;20.70;99.90;;;;;;5035739;28;20482;-69
2022/08/16 01:37:56;;;;;;;11.00;8.75;;;20.70;99.90;;;;;;5036364;28;20053;-69
2022/08/16 01:40:26;;;;;;;9.07;8.18;;;20.70;99.90;;;;;;5035697;28;20123;-69
2022/08/16 01:42:54;;;;;;;10.68;9.57;;;20.70;99.90;;;;;;5018529;28;20103;-69
2022/08/16 01:45:20;;;;;;;11.32;9.55;;;20.70;99.90;;;;;;5035562;28;20493;-69
2022/08/16 01:47:49;;;;;;;13.65;9.75;;;20.70;99.90;;;;;;5018050;28;20081;-69
2022/08/16 01:50:15;;;;;;;10.85;9.75;;;20.70;99.90;;;;;;5035460;28;20132;-69
2022/08/16 01:52:42;;;;;;;10.88;9.50;;;20.70;99.90;;;;;;5035443;28;20390;-69
2022/08/16 01:55:09;;;;;;;11.52;9.90;;;20.70;99.90;;;;;;5035394;28;20046;-69
2022/08/16 01:57:34;;;;;;;12.05;9.63;;;20.70;99.90;;;;;;5017836;28;20129;-69
2022/08/16 02:00:01;;;;;;;11.95;9.02;;;20.80;99.90;;;;;;5035231;28;20131;-69
2022/08/16 02:02:27;;;;;;;10.02;9.02;;;20.80;99.90;;;;;;5035245;28;20049;-69
2022/08/16 02:04:53;;;;;;;9.65;8.57;;;20.80;99.90;;;;;;5035245;28;20140;-69
2022/08/16 02:07:20;;;;;;;9.68;8.68;;;20.90;99.90;;;;;;5017736;28;20120;-69
2022/08/16 02:09:47;;;;;;;10.20;8.57;;;20.90;99.90;;;;;;5035178;28;20060;-69
2022/08/16 02:12:15;;;;;;;10.23;8.50;;;20.80;99.90;;;;;;5035069;28;20125;-69
2022/08/16 02:14:41;;;;;;;10.40;9.27;;;20.80;99.90;;;;;;5035346;28;20203;-69
2022/08/16 02:17:09;;;;;;;9.73;8.27;;;20.80;99.90;;;;;;5034166;28;20487;-69
2022/08/16 02:19:39;;;;;;;10.43;8.85;;;20.80;99.90;;;;;;5017205;28;20045;-69
2022/08/16 02:22:08;;;;;;;9.80;8.80;;;20.80;99.90;;;;;;5034896;28;20037;-69
2022/08/16 02:24:34;;;;;;;10.43;8.77;;;20.90;99.90;;;;;;5034875;28;20052;-69
2022/08/16 02:27:00;;;;;;;10.60;8.65;;;20.80;99.90;;;;;;5035692;28;20053;-69
2022/08/16 02:29:26;;;;;;;11.93;8.88;;;20.90;99.90;;;;;;5035305;28;20045;-69
2022/08/16 02:31:52;;;;;;;10.05;9.05;;;20.90;99.90;;;;;;5034743;28;20061;-69
2022/08/16 02:34:20;;;;;;;10.13;8.60;;;21.00;99.90;;;;;;5034642;28;20052;-69
2022/08/16 02:36:46;;;;;;;10.88;9.77;;;21.00;99.90;;;;;;5034684;28;20387;-69
2022/08/16 02:39:13;;;;;;;11.00;9.60;;;21.00;99.90;;;;;;5034995;28;20418;-69
2022/08/16 02:41:42;;;;;;;10.75;9.65;;;21.00;99.90;;;;;;5034594;28;20037;-69
2022/08/16 02:44:11;;;;;;;11.38;8.93;;;21.00;99.90;;;;;;5017372;28;20042;-69
2022/08/16 02:46:37;;;;;;;11.73;10.52;;;21.00;99.90;;;;;;5034437;28;20053;-69
2022/08/16 02:49:05;;;;;;;11.98;10.00;;;21.00;99.90;;;;;;5034032;28;20099;-69
2022/08/16 02:51:31;;;;;;;11.25;10.05;;;20.80;99.90;;;;;;5034428;28;20057;-69
2022/08/16 02:53:57;;;;;;;11.05;9.68;;;20.70;99.90;;;;;;5034313;28;20049;-69
2022/08/16 02:56:23;;;;;;;10.63;9.32;;;20.60;99.90;;;;;;5034228;28;20079;-69
2022/08/16 02:58:52;;;;;;;10.15;9.15;;;20.50;99.90;;;;;;5034136;28;20048;-69
2022/08/16 03:01:22;;;;;;;11.02;9.88;;;20.20;99.90;;;;;;5034190;28;20045;-69
2022/08/16 03:03:48;;;;;;;10.18;9.18;;;20.00;99.90;;;;;;5016623;28;20041;-69
2022/08/16 03:06:18;;;;;;;11.48;10.27;;;19.90;99.90;;;;;;5016676;28;20094;-69
2022/08/16 03:08:43;;;;;;;12.30;10.77;;;20.00;99.90;;;;;;5033916;28;20171;-69
2022/08/16 03:11:09;;;;;;;11.75;10.07;;;20.10;99.90;;;;;;5033978;28;20088;-69
2022/08/16 03:13:35;;;;;;;12.82;11.35;;;20.10;99.90;;;;;;5033903;28;20048;-69
2022/08/16 03:16:01;;;;;;;13.02;10.55;;;20.10;99.90;;;;;;5033904;28;20045;-69
2022/08/16 03:18:26;;;;;;;11.05;9.75;;;20.10;99.90;;;;;;5034242;28;20338;-69
2022/08/16 03:20:52;;;;;;;10.55;9.43;;;20.10;99.90;;;;;;5033860;28;20045;-69
2022/08/16 03:23:17;;;;;;;11.93;9.80;;;20.10;99.90;;;;;;5033648;28;20045;-69
2022/08/16 03:25:43;;;;;;;11.43;10.23;;;20.20;99.90;;;;;;5016379;28;20049;-69
2022/08/16 03:28:09;;;;;;;11.30;10.20;;;20.20;99.90;;;;;;5033149;28;20044;-69
2022/08/16 03:30:36;;;;;;;11.60;10.40;;;20.10;99.90;;;;;;5033609;28;20053;-69
2022/08/16 03:33:02;;;;;;;12.27;10.20;;;20.00;99.90;;;;;;5015752;28;20482;-68
2022/08/16 03:35:30;;;;;;;11.60;9.95;;;20.00;99.90;;;;;;5033352;28;20132;-69
2022/08/16 03:37:59;;;;;;;11.52;9.90;;;20.00;99.90;;;;;;5032980;28;20545;-69
2022/08/16 03:40:26;;;;;;;12.93;9.98;;;20.00;99.90;;;;;;5033367;28;20089;-68
2022/08/16 03:42:52;;;;;;;11.20;9.98;;;20.00;99.90;;;;;;5033434;28;20050;-69
2022/08/16 03:45:18;;;;;;;11.30;10.00;;;20.00;99.90;;;;;;5015969;28;20084;-69
2022/08/16 03:47:49;;;;;;;11.73;9.68;;;20.00;99.90;;;;;;5033807;28;20042;-69
2022/08/16 03:50:16;;;;;;;11.38;9.55;;;19.90;99.90;;;;;;5033256;28;20448;-69
2022/08/16 03:52:42;;;;;;;10.30;9.13;;;19.90;99.90;;;;;;5033231;28;20046;-69
2022/08/16 03:55:09;;;;;;;12.40;9.20;;;19.90;99.90;;;;;;5033313;28;20059;-69
2022/08/16 03:57:36;;;;;;;10.77;9.65;;;19.90;99.90;;;;;;5033910;28;20048;-69
2022/08/16 04:00:15;;;;;;;10.52;9.35;;;19.90;99.90;;;;;;5033247;28;20045;-69
2022/08/16 04:02:42;;;;;;;11.32;8.50;;;20.00;99.90;;;;;;5032882;28;20087;-69
2022/08/16 04:05:10;;;;;;;10.48;9.38;;;20.00;99.90;;;;;;5033922;28;20352;-69
2022/08/16 04:07:36;;;;;;;11.23;10.02;;;20.00;99.90;;;;;;5033146;28;20045;-69
2022/08/16 04:10:05;;;;;;;12.90;10.10;;;20.00;99.90;;;;;;5033365;28;20050;-70
2022/08/16 04:12:30;;;;;;;12.38;10.05;;;20.00;99.90;;;;;;5033140;28;20138;-69
2022/08/16 04:14:56;;;;;;;10.75;9.40;;;20.00;99.90;;;;;;5033672;28;20486;-69
2022/08/16 04:17:22;;;;;;;10.18;8.82;;;20.00;99.90;;;;;;5032956;28;20072;-69
2022/08/16 04:19:47;;;;;;;10.90;9.70;;;19.90;99.90;;;;;;5032624;28;20056;-69
2022/08/16 04:22:13;;;;;;;11.48;10.18;;;19.90;99.90;;;;;;5032357;28;20050;-69
2022/08/16 04:24:39;;;;;;;10.82;9.30;;;19.80;99.90;;;;;;5032747;28;20561;-70
2022/08/16 04:27:05;;;;;;;9.52;8.55;;;19.70;99.90;;;;;;5033660;28;20128;-69
2022/08/16 04:29:31;;;;;;;9.68;8.65;;;19.60;99.90;;;;;;5032783;28;20045;-69
2022/08/16 04:31:56;;;;;;;10.10;9.10;;;19.50;99.90;;;;;;5015171;28;20079;-69
2022/08/16 04:34:23;;;;;;;10.98;9.88;;;19.40;99.90;;;;;;5015211;28;20093;-69
2022/08/16 04:36:49;;;;;;;11.18;9.98;;;19.40;99.90;;;;;;5032763;28;20045;-69
2022/08/16 04:39:15;;;;;;;11.77;9.70;;;19.30;99.90;;;;;;5033687;28;20048;-69
2022/08/16 04:41:41;;;;;;;11.00;9.75;;;19.30;99.90;;;;;;5037254;28;20128;-69
2022/08/16 04:44:06;;;;;;;12.23;9.60;;;19.20;99.90;;;;;;5036404;28;20049;-69
2022/08/16 04:46:32;;;;;;;10.85;9.75;;;19.20;99.90;;;;;;5036773;28;20077;-69
2022/08/16 04:48:58;;;;;;;9.90;8.90;;;19.10;99.90;;;;;;5019948;28;20056;-69
2022/08/16 04:51:24;;;;;;;11.48;9.23;;;19.10;99.90;;;;;;5036548;28;20050;-69
2022/08/16 04:53:49;;;;;;;11.90;10.25;;;19.00;99.90;;;;;;5036499;28;20128;-69
2022/08/16 04:56:17;;;;;;;11.73;9.73;;;19.10;99.90;;;;;;5036544;28;20087;-69
2022/08/16 04:58:44;;;;;;;10.63;9.55;;;19.00;99.90;;;;;;5036458;28;20038;-69
2022/08/16 05:01:10;;;;;;;12.60;10.60;;;19.00;99.90;;;;;;5036396;28;20053;-69
2022/08/16 05:03:36;;;;;;;11.45;10.02;;;19.00;99.90;;;;;;5036330;28;20124;-69
2022/08/16 05:06:02;;;;;;;13.23;10.63;;;18.90;99.90;;;;;;5036297;28;20049;-69
2022/08/16 05:08:28;;;;;;;12.02;10.38;;;18.90;99.90;;;;;;5036245;28;20047;-69
2022/08/16 05:10:54;;;;;;;11.55;10.35;;;19.00;99.90;;;;;;5036189;28;20056;-69
2022/08/16 05:13:19;;;;;;;12.93;10.50;;;19.00;99.90;;;;;;5036221;28;20049;-69
2022/08/16 05:15:46;;;;;;;13.93;11.60;;;19.10;99.90;;;;;;5035839;28;20132;-69
2022/08/16 05:18:13;;;;;;;12.23;10.93;;;19.20;99.90;;;;;;5036066;28;20049;-69
2022/08/16 05:20:39;;;;;;;12.80;11.07;;;19.30;99.90;;;;;;5036877;28;20061;-69
2022/08/16 05:23:04;;;;;;;13.48;11.18;;;19.40;99.90;;;;;;5036703;28;20050;-69
2022/08/16 05:25:30;;;;;;;13.27;10.57;;;19.50;99.90;;;;;;5036475;28;20372;-69
2022/08/16 05:27:58;;;;;;;11.13;9.70;;;19.60;99.90;;;;;;5035923;28;20049;-68
2022/08/16 05:30:24;;;;;;;12.13;10.27;;;19.60;99.90;;;;;;5035553;28;20490;-68
2022/08/16 05:32:50;;;;;;;12.98;11.32;;;19.70;99.90;;;;;;5036179;28;20107;-68
2022/08/16 05:35:16;;;;;;;12.18;10.52;;;19.80;99.90;;;;;;5036301;28;20465;-68
2022/08/16 05:37:42;;;;;;;11.90;10.65;;;19.80;99.90;;;;;;5035719;28;20449;-68
2022/08/16 05:40:10;;;;;;;12.35;10.48;;;19.90;99.90;;;;;;5036254;28;20048;-68
2022/08/16 05:42:36;;;;;;;12.45;10.25;;;19.90;99.90;;;;;;5035783;28;20091;-68
2022/08/16 05:45:04;;;;;;;12.57;10.77;;;20.00;99.90;;;;;;5018056;28;20053;-68
2022/08/16 05:47:30;;;;;;;12.65;10.48;;;20.00;99.90;;;;;;5035473;28;20084;-68
2022/08/16 05:49:55;;;;;;;11.30;10.10;;;20.00;99.90;;;;;;5035563;28;20104;-68
2022/08/16 05:52:21;;;;;;;11.10;9.30;;;20.10;99.90;;;;;;5034466;28;20372;-68
2022/08/16 05:54:47;;;;;;;12.32;9.93;;;20.20;99.90;;;;;;5035507;28;20053;-68
2022/08/16 05:57:17;;;;;;;12.02;9.75;;;20.20;99.90;;;;;;5035275;28;20100;-68
2022/08/16 05:59:47;;;;;;;11.88;9.30;;;20.30;99.90;;;;;;5017959;28;20068;-68
2022/08/16 06:02:13;;;;;;;10.95;8.73;;;20.40;99.90;;;;;;5035249;28;20057;-67
2022/08/16 06:04:39;;;;;;;10.25;9.15;;;20.60;99.90;;;;;;5035273;28;20083;-68
2022/08/16 06:07:06;;;;;;;10.82;8.48;;;20.70;99.90;;;;;;5035283;28;20045;-69
2022/08/16 06:09:32;;;;;;;11.02;8.77;;;20.80;99.90;;;;;;5018002;28;20049;-68
2022/08/16 06:12:01;;;;;;;9.85;8.43;;;20.90;99.90;;;;;;5035121;28;20042;-68
2022/08/16 06:14:28;;;;;;;9.38;8.23;;;21.00;99.90;;;;;;5017897;28;20049;-68
2022/08/16 06:16:54;;;;;;;10.10;8.77;;;21.10;99.90;;;;;;5017418;28;20050;-69
2022/08/16 06:19:20;;;;;;;8.88;7.65;;;21.20;99.90;;;;;;5034969;28;20057;-69
2022/08/16 06:21:46;;;;;;;11.65;8.50;;;21.30;99.90;;;;;;5035378;28;20041;-65
2022/08/16 06:24:12;;;;;;;10.05;8.32;;;21.50;99.90;;;;;;5034841;28;20478;-66
2022/08/16 06:26:38;;;;;;;9.35;8.45;;;21.50;99.90;;;;;;5034872;28;20162;-65
2022/08/16 06:29:04;;;;;;;9.10;7.93;;;21.70;99.90;;;;;;5035013;28;20462;-65
2022/08/16 06:31:30;;;;;;;9.55;8.55;;;21.80;99.90;;;;;;5034378;28;20191;-65
2022/08/16 06:33:56;;;;;;;10.98;8.70;;;22.00;99.90;;;;;;5034750;28;20541;-65
2022/08/16 06:36:22;;;;;;;8.68;7.45;;;22.20;99.90;;;;;;5017345;28;20054;-65
2022/08/16 06:38:50;;;;;;;8.30;7.50;;;22.30;99.90;;;;;;5034368;28;20049;-65
2022/08/16 06:41:16;;;;;;;9.20;7.50;;;22.40;99.90;;;;;;5034407;28;20138;-65
2022/08/16 06:43:42;;;;;;;9.93;8.20;;;22.50;99.90;;;;;;5034988;28;20041;-65
2022/08/16 06:46:21;;;;;;;9.80;8.55;;;22.60;99.90;;;;;;5034496;28;20046;-65
2022/08/16 06:48:47;;;;;;;10.85;9.30;;;22.60;99.90;;;;;;5034950;28;20427;-65
2022/08/16 06:51:13;;;;;;;8.98;7.93;;;22.60;99.90;;;;;;5034402;28;20085;-65
2022/08/16 06:53:38;;;;;;;9.10;8.20;;;22.60;99.90;;;;;;5017100;28;20052;-65
2022/08/16 06:56:07;;;;;;;9.77;8.68;;;22.60;99.90;;;;;;5034723;28;20049;-65
2022/08/16 06:58:34;;;;;;;10.82;8.73;;;22.60;99.90;;;;;;5034134;28;20608;-65
2022/08/16 07:01:00;;;;;;;8.82;7.93;;;22.60;99.90;;;;;;5034131;28;20053;-65
2022/08/16 07:03:27;;;;;;;9.40;7.70;;;22.60;99.90;;;;;;5034044;28;20475;-65
2022/08/16 07:05:53;;;;;;;9.95;8.60;;;22.60;99.90;;;;;;5034479;28;20143;-65
2022/08/16 07:08:18;;;;;;;8.93;7.30;;;22.70;99.90;;;;;;5034153;28;20045;-65
2022/08/16 07:10:44;;;;;;;8.88;7.32;;;22.70;99.90;;;;;;5016657;28;20394;-65
2022/08/16 07:13:10;;;;;;;9.60;7.80;;;22.80;99.90;;;;;;5033961;28;20403;-65
2022/08/16 07:15:36;;;;;;;10.10;7.97;;;22.90;99.90;;;;;;5033928;28;20520;-65
2022/08/16 07:18:02;;;;;;;10.30;7.70;;;22.90;99.90;;;;;;5034121;28;20391;-65
2022/08/16 07:20:27;;;;;;;9.05;8.15;;;23.00;99.90;;;;;;5033721;28;20061;-65
2022/08/16 07:22:54;;;;;;;8.55;7.30;;;23.10;99.90;;;;;;5015559;28;20497;-66
2022/08/16 07:25:21;;;;;;;8.68;7.45;;;23.20;99.90;;;;;;5033155;28;20486;-66
2022/08/16 07:27:47;;;;;;;9.02;7.80;;;23.30;99.90;;;;;;5015891;28;20056;-65
2022/08/16 07:30:14;;;;;;;8.27;7.22;;;23.30;99.90;;;;;;5034182;28;20057;-66
2022/08/16 07:32:40;;;;;;;7.90;7.10;;;23.30;99.90;;;;;;5033845;28;20087;-65
2022/08/16 07:35:06;;;;;;;8.82;7.65;;;23.30;99.90;;;;;;5033454;28;20557;-65
2022/08/16 07:37:32;;;;;;;8.77;7.88;;;23.20;99.90;;;;;;5033170;28;20052;-65
2022/08/16 07:39:58;;;;;;;9.73;7.70;;;23.10;99.90;;;;;;5033402;28;20208;-65
2022/08/16 07:42:23;;;;;;;9.88;7.53;;;23.00;99.90;;;;;;5033365;28;20045;-66
2022/08/16 07:44:49;;;;;;;8.82;7.93;;;23.10;99.90;;;;;;5033864;28;20441;-66
2022/08/16 07:47:15;;;;;;;8.90;8.00;;;23.20;99.90;;;;;;5033314;28;20045;-66
2022/08/16 07:49:40;;;;;;;10.20;7.90;;;23.30;99.90;;;;;;5033352;28;20042;-66
2022/08/16 07:52:06;;;;;;;10.13;8.52;;;23.40;99.90;;;;;;5033120;28;20056;-67
2022/08/16 07:54:32;;;;;;;9.85;8.85;;;23.60;99.90;;;;;;5033216;28;20071;-67
2022/08/16 07:56:58;;;;;;;10.32;9.32;;;23.70;99.90;;;;;;5015679;28;20093;-66
2022/08/16 07:59:24;;;;;;;10.15;9.15;;;23.80;99.90;;;;;;5033531;28;20117;-66
2022/08/16 08:01:51;;;;;;;10.85;9.80;;;23.80;99.90;;;;;;5015684;28;20191;-66
2022/08/16 08:04:18;;;;;;;10.50;9.40;;;23.90;99.90;;;;;;5033057;28;20418;-66
2022/08/16 08:06:44;;;;;;;11.23;9.65;;;24.00;99.90;;;;;;5032996;28;20045;-65
2022/08/16 08:09:10;;;;;;;10.98;9.18;;;24.10;99.90;;;;;;5016358;28;20060;-65
2022/08/16 08:11:36;;;;;;;11.10;9.07;;;24.10;99.90;;;;;;5033048;28;20375;-65
2022/08/16 08:14:02;;;;;;;11.13;9.23;;;24.20;99.90;;;;;;5034876;28;20053;-65
2022/08/16 08:16:28;;;;;;;9.82;8.70;;;24.30;99.90;;;;;;5039482;28;20561;-65
2022/08/16 08:18:54;;;;;;;10.88;9.02;;;24.30;99.90;;;;;;5039454;28;20124;-65
2022/08/16 08:21:23;;;;;;;10.73;8.77;;;24.40;99.90;;;;;;5039630;28;20144;-65
2022/08/16 08:23:49;;;;;;;10.18;8.60;;;24.50;99.90;;;;;;5039965;28;20038;-65
2022/08/16 08:26:16;;;;;;;8.88;7.97;;;24.50;99.90;;;;;;5006132;28;20132;-65
2022/08/16 08:28:42;;;;;;;8.82;7.68;;;24.60;99.90;;;;;;5040553;28;20409;-65
2022/08/16 08:31:08;;;;;;;8.98;7.93;;;24.80;99.90;;;;;;5039501;28;20046;-65
2022/08/16 08:33:35;;;;;;;8.48;7.68;;;24.80;99.90;;;;;;5039486;28;20053;-66
2022/08/16 08:36:06;;;;;;;9.52;8.63;;;24.90;99.90;;;;;;5039456;28;20464;-65
2022/08/16 08:38:34;;;;;;;10.93;8.65;;;25.00;99.90;;;;;;5039378;28;20081;-65
2022/08/16 08:41:03;;;;;;;9.45;8.55;;;25.10;99.90;;;;;;5039030;28;20069;-65
2022/08/16 08:43:29;;;;;;;9.57;8.48;;;25.10;99.90;;;;;;5039269;28;20132;-65
2022/08/16 08:45:55;;;;;;;10.05;9.02;;;25.10;99.90;;;;;;5039125;28;20133;-65
2022/08/16 08:48:21;;;;;;;8.23;7.35;;;25.10;99.90;;;;;;5039208;28;20132;-64
2022/08/16 08:50:48;;;;;;;9.20;8.32;;;25.10;99.90;;;;;;5039188;28;20046;-65
2022/08/16 08:53:15;;;;;;;9.45;8.10;;;25.10;99.90;;;;;;5039066;28;20128;-65
2022/08/16 08:55:41;;;;;;;10.15;9.15;;;25.20;99.90;;;;;;5021738;28;20490;-65
2022/08/16 08:58:07;;;;;;;10.35;9.30;;;25.30;99.90;;;;;;5039170;28;20111;-65
2022/08/16 09:00:34;;;;;;;9.23;8.15;;;25.40;99.90;;;;;;5039278;28;20099;-65
2022/08/16 09:03:00;;;;;;;9.30;8.35;;;25.40;99.90;;;;;;5039426;28;20509;-65
2022/08/16 09:05:26;;;;;;;9.85;7.85;;;25.50;99.90;;;;;;5039164;28;20049;-66
2022/08/16 09:07:54;;;;;;;8.88;7.97;;;25.60;99.90;;;;;;5039136;28;20045;-66
2022/08/16 09:10:20;;;;;;;8.02;7.28;;;25.70;99.90;;;;;;5039990;28;20398;-66
2022/08/16 09:12:46;;;;;;;7.15;6.47;;;25.70;99.90;;;;;;5039250;28;20049;-66
2022/08/16 09:15:14;;;;;;;7.68;6.82;;;25.80;99.90;;;;;;5039584;28;20045;-65
2022/08/16 09:17:41;;;;;;;8.63;7.72;;;25.90;99.90;;;;;;5039050;28;20451;-65
2022/08/16 09:20:09;;;;;;;8.48;7.60;;;25.90;99.90;;;;;;5038773;28;20486;-66
2022/08/16 09:22:36;;;;;;;6.68;5.90;;;25.90;99.90;;;;;;5039783;28;20055;-65
2022/08/16 09:25:03;;;;;;;7.50;6.80;;;26.00;99.90;;;;;;5038336;28;20045;-65
2022/08/16 09:27:28;;;;;;;8.65;7.82;;;26.10;99.90;;;;;;5034948;28;20049;-65
2022/08/16 09:29:54;;;;;;;8.95;6.80;;;26.10;99.90;;;;;;5035891;28;20041;-65
2022/08/16 09:32:20;;;;;;;7.60;6.75;;;26.20;99.90;;;;;;5014785;28;20363;-65
2022/08/16 09:34:46;;;;;;;7.38;6.68;;;26.20;99.90;;;;;;5015994;28;20491;-65
2022/08/16 09:37:14;;;;;;;8.52;6.80;;;26.20;99.90;;;;;;5016060;28;20042;-65
2022/08/16 09:39:41;;;;;;;7.22;6.50;;;26.30;99.90;;;;;;5015380;28;20092;-65
2022/08/16 09:42:08;;;;;;;6.53;5.93;;;26.40;99.90;;;;;;5016363;28;20053;-65
2022/08/16 09:44:34;;;;;;;8.20;5.40;;;26.50;99.90;;;;;;5015747;28;20042;-65
2022/08/16 09:47:01;;;;;;;7.20;5.97;;;26.50;99.90;;;;;;5015742;28;20491;-65
2022/08/16 09:49:26;;;;;;;6.50;5.28;;;26.60;99.90;;;;;;5015818;28;20431;-65
2022/08/16 09:51:53;;;;;;;6.13;5.53;;;26.80;99.90;;;;;;5015662;28;20085;-65
2022/08/16 09:54:24;;;;;;;6.68;5.85;;;26.80;99.90;;;;;;5016194;28;20426;-65
2022/08/16 09:56:50;;;;;;;6.25;5.65;;;26.90;99.90;;;;;;5015289;28;20612;-65
2022/08/16 09:59:16;;;;;;;5.35;4.85;;;26.70;99.90;;;;;;5015302;28;20132;-66
2022/08/16 10:01:43;;;;;;;7.13;5.20;;;26.90;99.90;;;;;;5015934;28;20103;-66
2022/08/16 10:04:10;;;;;;;7.10;6.40;;;26.90;99.90;;;;;;5015539;28;20049;-66
2022/08/16 10:06:36;;;;;;;6.03;5.30;;;26.80;99.90;;;;;;5014673;28;20057;-66
2022/08/16 10:09:07;;;;;;;5.57;5.00;;;26.80;99.90;;;;;;5015420;28;20041;-66
2022/08/16 10:14:22;;;;;;;5.30;4.80;;;26.90;99.90;;;;;;5015561;28;20049;-66
2022/08/16 10:16:48;;;;;;;5.80;5.20;;;27.00;99.90;;;;;;5015770;28;20061;-66
2022/08/16 10:19:15;;;;;;;5.35;4.85;;;27.00;99.90;;;;;;5014702;28;20402;-66
2022/08/16 10:21:41;;;;;;;4.35;3.92;;;27.00;99.90;;;;;;5015074;28;20046;-66
2022/08/16 10:24:08;;;;;;;5.75;3.67;;;27.10;99.90;;;;;;5015536;28;20371;-65
2022/08/16 10:26:35;;;;;;;4.20;3.58;;;27.20;99.90;;;;;;5015007;28;20112;-65
2022/08/16 10:29:04;;;;;;;5.35;4.50;;;27.20;99.90;;;;;;5014750;28;20390;-65
2022/08/16 10:31:30;;;;;;;6.40;4.97;;;27.30;99.90;;;;;;5014414;28;20476;-66
2022/08/16 10:33:56;;;;;;;6.82;4.47;;;27.30;99.90;;;;;;5035703;28;20076;-64
2022/08/16 10:36:22;;;;;;;7.22;3.92;;;27.40;99.90;;;;;;5034558;28;20127;-65
2022/08/16 10:38:48;;;;;;;4.25;3.60;;;27.40;99.90;;;;;;5034258;28;20076;-64
2022/08/16 10:41:13;;;;;;;5.60;4.28;;;27.30;99.90;;;;;;5034537;28;20056;-65
2022/08/16 10:43:40;;;;;;;5.85;4.80;;;27.40;99.90;;;;;;5035003;28;20394;-65
2022/08/16 10:46:10;;;;;;;5.72;4.43;;;27.40;99.90;;;;;;5034494;28;20239;-65
2022/08/16 10:48:37;;;;;;;5.63;4.50;;;27.40;99.90;;;;;;5034680;28;20045;-64
2022/08/16 10:51:03;;;;;;;6.63;6.03;;;27.50;99.90;;;;;;5017080;28;20052;-64
2022/08/16 10:53:30;;;;;;;6.40;4.80;;;27.50;99.90;;;;;;5016738;28;20145;-65
2022/08/16 10:55:58;;;;;;;5.13;4.30;;;27.40;99.90;;;;;;5034346;28;20077;-65
2022/08/16 10:58:25;;;;;;;5.30;4.20;;;27.40;99.90;;;;;;5034154;28;20128;-65
2022/08/16 11:00:50;;;;;;;5.18;3.90;;;27.60;99.90;;;;;;5034667;28;20148;-66
2022/08/16 11:03:16;;;;;;;5.10;4.45;;;27.60;99.90;;;;;;5016736;28;20514;-66
2022/08/16 11:05:42;;;;;;;5.20;4.20;;;27.70;99.90;;;;;;5034047;28;20042;-66
2022/08/16 11:08:10;;;;;;;5.03;3.95;;;27.80;99.90;;;;;;5033699;28;20487;-66
2022/08/16 11:10:40;;;;;;;4.15;3.63;;;27.80;99.90;;;;;;5034001;28;20091;-67
2022/08/16 11:13:07;;;;;;;5.10;3.78;;;27.80;99.90;;;;;;5033892;28;20092;-66
2022/08/16 11:15:35;;;;;;;5.53;3.47;;;28.00;99.90;;;;;;5033789;28;20049;-66
2022/08/16 11:18:01;;;;;;;4.32;3.15;;;28.00;99.90;;;;;;5034296;28;20042;-66
2022/08/16 11:20:27;;;;;;;6.15;3.72;;;28.00;99.90;;;;;;4999669;28;20449;-66
2022/08/16 11:22:54;;;;;;;3.40;3.10;;;28.00;99.90;;;;;;5033720;28;20045;-65
2022/08/16 11:25:23;;;;;;;5.03;3.28;;;28.10;99.90;;;;;;5033368;28;20056;-66
2022/08/16 11:27:49;;;;;;;4.40;3.05;;;28.10;99.90;;;;;;5033600;28;20459;-66
2022/08/16 11:30:15;;;;;;;3.72;2.95;;;28.20;99.90;;;;;;5016458;28;20445;-66
2022/08/16 11:32:45;;;;;;;4.35;2.33;;;28.20;99.90;;;;;;5033677;28;20057;-66
2022/08/16 11:35:15;;;;;;;3.67;2.30;;;28.30;99.90;;;;;;5033520;28;20095;-66
2022/08/16 11:37:47;;;;;;;4.97;2.70;;;28.20;99.90;;;;;;5033981;28;20107;-66
2022/08/16 11:40:14;;;;;;;4.40;3.10;;;28.40;99.90;;;;;;5033602;28;20057;-66
2022/08/16 11:42:40;;;;;;;3.10;2.67;;;28.50;99.90;;;;;;5034041;28;20084;-66
2022/08/16 11:45:07;;;;;;;5.20;3.22;;;28.50;99.90;;;;;;5033482;28;20077;-66
2022/08/16 11:47:33;;;;;;;3.90;3.42;;;28.40;99.90;;;;;;5033897;28;20111;-66
2022/08/16 11:49:59;;;;;;;4.20;3.25;;;28.40;99.90;;;;;;5032690;28;20045;-66
2022/08/16 11:52:25;;;;;;;4.72;3.33;;;28.40;99.90;;;;;;5033329;28;20053;-66
2022/08/16 11:54:51;;;;;;;4.50;3.20;;;28.30;99.90;;;;;;5033926;28;20057;-66
2022/08/16 11:57:17;;;;;;;4.00;3.00;;;28.30;99.90;;;;;;5015555;28;20055;-65
2022/08/16 11:59:42;;;;;;;4.10;3.15;;;28.30;99.90;;;;;;5015504;28;20049;-65
2022/08/16 12:02:09;;;;;;;3.45;2.50;;;28.30;99.90;;;;;;5033277;28;20482;-65
2022/08/16 12:04:34;;;;;;;3.65;2.60;;;28.20;99.90;;;;;;5033071;28;20128;-65
2022/08/16 12:07:04;;;;;;;4.03;3.03;;;28.30;99.90;;;;;;5033083;28;20190;-65
2022/08/16 12:09:30;;;;;;;3.45;3.08;;;28.40;99.90;;;;;;5033067;28;20110;-65
2022/08/16 12:11:57;;;;;;;2.90;2.58;;;28.50;99.90;;;;;;5015756;28;20049;-65
2022/08/16 12:14:23;;;;;;;3.13;2.83;;;28.50;99.90;;;;;;5033193;28;20076;-65
2022/08/16 12:16:50;;;;;;;2.90;2.60;;;28.50;99.90;;;;;;5032896;28;20049;-65
2022/08/16 12:19:15;;;;;;;3.03;2.70;;;28.60;99.90;;;;;;5032728;28;20033;-66
2022/08/16 12:21:41;;;;;;;2.72;2.40;;;28.70;99.90;;;;;;5015590;28;20060;-70
2022/08/16 12:24:07;;;;;;;3.25;2.60;;;28.70;99.90;;;;;;5032761;28;20116;-65
2022/08/16 12:26:33;;;;;;;2.38;2.10;;;28.70;99.90;;;;;;5015751;28;20052;-65
2022/08/16 12:29:00;;;;;;;2.78;2.40;;;28.70;99.90;;;;;;5033403;28;20497;-65
2022/08/16 12:31:26;;;;;;;2.65;2.30;;;28.80;99.70;;;;;;5032783;28;20080;-65
2022/08/16 12:33:53;;;;;;;4.28;2.40;;;28.90;99.50;;;;;;5032786;28;20057;-65
2022/08/16 12:36:19;;;;;;;3.53;2.60;;;29.00;99.20;;;;;;5032915;28;20060;-65
2022/08/16 12:38:46;;;;;;;3.58;2.13;;;29.00;98.90;;;;;;5032792;28;20053;-65
2022/08/16 12:41:12;;;;;;;3.40;2.20;;;28.90;98.60;;;;;;5032472;28;20386;-66